sensor_id;sensor_type;location;lat;lon;timestamp;P1;durP1;ratioP1;P2;durP2;ratioP2
31782;SDS011;18351;47.560;9.708;2023-03-12T00:00:32;24.95;;;15.73;;
31782;SDS011;18351;47.560;9.708;2023-03-12T00:02:58;27.10;;;17.48;;
31782;SDS011;18351;47.560;9.708;2023-03-12T00:05:23;25.95;;;17.25;;
31782;SDS011;18351;47.560;9.708;2023-03-12T00:07:50;27.88;;;17.23;;
31782;SDS011;18351;47.560;9.708;2023-03-12T00:10:16;25.58;;;16.70;;
31782;SDS011;18351;47.560;9.708;2023-03-12T00:12:42;24.98;;;16.65;;
31782;SDS011;18351;47.560;9.708;2023-03-12T00:15:08;24.25;;;15.38;;
31782;SDS011;18351;47.560;9.708;2023-03-12T00:17:34;27.35;;;17.42;;
31782;SDS011;18351;47.560;9.708;2023-03-12T00:20:00;23.33;;;15.27;;
31782;SDS011;18351;47.560;9.708;2023-03-12T00:22:26;20.10;;;14.05;;
31782;SDS011;18351;47.560;9.708;2023-03-12T00:24:52;20.02;;;14.05;;
31782;SDS011;18351;47.560;9.708;2023-03-12T00:27:19;20.83;;;13.98;;
31782;SDS011;18351;47.560;9.708;2023-03-12T00:29:45;23.23;;;15.38;;
31782;SDS011;18351;47.560;9.708;2023-03-12T00:32:10;20.27;;;13.77;;
31782;SDS011;18351;47.560;9.708;2023-03-12T00:34:36;20.02;;;13.63;;
31782;SDS011;18351;47.560;9.708;2023-03-12T00:37:02;20.77;;;13.45;;
31782;SDS011;18351;47.560;9.708;2023-03-12T00:39:27;19.90;;;12.98;;
31782;SDS011;18351;47.560;9.708;2023-03-12T00:41:53;19.27;;;12.63;;
31782;SDS011;18351;47.560;9.708;2023-03-12T00:44:19;20.08;;;13.43;;
31782;SDS011;18351;47.560;9.708;2023-03-12T00:46:45;18.25;;;13.07;;
31782;SDS011;18351;47.560;9.708;2023-03-12T00:49:10;18.45;;;12.27;;
31782;SDS011;18351;47.560;9.708;2023-03-12T00:51:36;16.85;;;12.15;;
31782;SDS011;18351;47.560;9.708;2023-03-12T00:54:02;17.85;;;12.70;;
31782;SDS011;18351;47.560;9.708;2023-03-12T00:56:28;17.45;;;11.98;;
31782;SDS011;18351;47.560;9.708;2023-03-12T00:58:54;19.27;;;13.45;;
31782;SDS011;18351;47.560;9.708;2023-03-12T01:01:20;18.55;;;13.25;;
31782;SDS011;18351;47.560;9.708;2023-03-12T01:03:46;17.20;;;12.48;;
31782;SDS011;18351;47.560;9.708;2023-03-12T01:06:11;17.00;;;11.77;;
31782;SDS011;18351;47.560;9.708;2023-03-12T01:08:37;17.08;;;12.27;;
31782;SDS011;18351;47.560;9.708;2023-03-12T01:11:03;16.40;;;11.80;;
31782;SDS011;18351;47.560;9.708;2023-03-12T01:13:29;16.48;;;12.07;;
31782;SDS011;18351;47.560;9.708;2023-03-12T01:15:54;16.88;;;11.82;;
31782;SDS011;18351;47.560;9.708;2023-03-12T01:18:20;16.92;;;11.35;;
31782;SDS011;18351;47.560;9.708;2023-03-12T01:20:46;15.23;;;10.55;;
31782;SDS011;18351;47.560;9.708;2023-03-12T01:23:11;15.52;;;10.70;;
31782;SDS011;18351;47.560;9.708;2023-03-12T01:25:37;13.68;;;10.00;;
31782;SDS011;18351;47.560;9.708;2023-03-12T01:28:04;14.23;;;9.40;;
31782;SDS011;18351;47.560;9.708;2023-03-12T01:30:30;12.65;;;9.27;;
31782;SDS011;18351;47.560;9.708;2023-03-12T01:32:55;11.95;;;8.75;;
31782;SDS011;18351;47.560;9.708;2023-03-12T01:35:21;10.45;;;7.93;;
31782;SDS011;18351;47.560;9.708;2023-03-12T01:37:46;13.57;;;8.90;;
31782;SDS011;18351;47.560;9.708;2023-03-12T01:40:18;12.77;;;9.27;;
31782;SDS011;18351;47.560;9.708;2023-03-12T01:42:52;11.80;;;8.85;;
31782;SDS011;18351;47.560;9.708;2023-03-12T01:48:21;15.18;;;10.43;;
31782;SDS011;18351;47.560;9.708;2023-03-12T01:50:47;16.08;;;10.15;;
31782;SDS011;18351;47.560;9.708;2023-03-12T01:53:13;13.85;;;10.00;;
31782;SDS011;18351;47.560;9.708;2023-03-12T01:55:39;12.57;;;9.50;;
31782;SDS011;18351;47.560;9.708;2023-03-12T01:58:05;13.25;;;9.63;;
31782;SDS011;18351;47.560;9.708;2023-03-12T02:00:31;13.15;;;9.52;;
31782;SDS011;18351;47.560;9.708;2023-03-12T02:02:59;13.20;;;9.38;;
31782;SDS011;18351;47.560;9.708;2023-03-12T02:05:31;12.23;;;8.35;;
31782;SDS011;18351;47.560;9.708;2023-03-12T02:08:03;12.73;;;8.80;;
31782;SDS011;18351;47.560;9.708;2023-03-12T02:10:28;12.52;;;8.48;;
31782;SDS011;18351;47.560;9.708;2023-03-12T02:12:54;12.52;;;9.20;;
31782;SDS011;18351;47.560;9.708;2023-03-12T02:15:20;10.50;;;8.02;;
31782;SDS011;18351;47.560;9.708;2023-03-12T02:17:46;10.43;;;7.53;;
31782;SDS011;18351;47.560;9.708;2023-03-12T02:22:38;12.00;;;8.05;;
31782;SDS011;18351;47.560;9.708;2023-03-12T02:25:18;11.48;;;7.97;;
31782;SDS011;18351;47.560;9.708;2023-03-12T02:27:52;10.60;;;7.75;;
31782;SDS011;18351;47.560;9.708;2023-03-12T02:30:19;12.75;;;8.40;;
31782;SDS011;18351;47.560;9.708;2023-03-12T02:32:45;12.63;;;8.93;;
31782;SDS011;18351;47.560;9.708;2023-03-12T02:35:14;10.90;;;7.85;;
31782;SDS011;18351;47.560;9.708;2023-03-12T02:37:47;12.98;;;8.20;;
31782;SDS011;18351;47.560;9.708;2023-03-12T02:40:26;10.48;;;7.13;;
31782;SDS011;18351;47.560;9.708;2023-03-12T02:43:06;11.23;;;7.50;;
31782;SDS011;18351;47.560;9.708;2023-03-12T02:45:33;9.82;;;7.55;;
31782;SDS011;18351;47.560;9.708;2023-03-12T02:48:01;11.35;;;7.80;;
31782;SDS011;18351;47.560;9.708;2023-03-12T02:50:27;12.10;;;7.97;;
31782;SDS011;18351;47.560;9.708;2023-03-12T02:52:52;10.20;;;7.50;;
31782;SDS011;18351;47.560;9.708;2023-03-12T02:55:18;9.90;;;7.22;;
31782;SDS011;18351;47.560;9.708;2023-03-12T02:57:43;9.23;;;6.50;;
31782;SDS011;18351;47.560;9.708;2023-03-12T03:00:10;8.15;;;5.95;;
31782;SDS011;18351;47.560;9.708;2023-03-12T03:02:37;8.48;;;6.13;;
31782;SDS011;18351;47.560;9.708;2023-03-12T03:05:03;8.00;;;5.90;;
31782;SDS011;18351;47.560;9.708;2023-03-12T03:07:29;10.98;;;7.20;;
31782;SDS011;18351;47.560;9.708;2023-03-12T03:09:55;7.65;;;6.05;;
31782;SDS011;18351;47.560;9.708;2023-03-12T03:12:20;9.02;;;6.22;;
31782;SDS011;18351;47.560;9.708;2023-03-12T03:14:46;8.43;;;6.35;;
31782;SDS011;18351;47.560;9.708;2023-03-12T03:17:12;9.48;;;7.30;;
31782;SDS011;18351;47.560;9.708;2023-03-12T03:19:38;12.57;;;8.65;;
31782;SDS011;18351;47.560;9.708;2023-03-12T03:22:03;12.40;;;8.70;;
31782;SDS011;18351;47.560;9.708;2023-03-12T03:24:29;13.07;;;9.07;;
31782;SDS011;18351;47.560;9.708;2023-03-12T03:26:54;11.93;;;8.23;;
31782;SDS011;18351;47.560;9.708;2023-03-12T03:29:20;13.40;;;9.98;;
31782;SDS011;18351;47.560;9.708;2023-03-12T03:31:45;15.00;;;9.88;;
31782;SDS011;18351;47.560;9.708;2023-03-12T03:34:11;15.23;;;10.43;;
31782;SDS011;18351;47.560;9.708;2023-03-12T03:36:37;14.82;;;10.38;;
31782;SDS011;18351;47.560;9.708;2023-03-12T03:39:02;16.50;;;11.40;;
31782;SDS011;18351;47.560;9.708;2023-03-12T03:41:29;12.98;;;9.13;;
31782;SDS011;18351;47.560;9.708;2023-03-12T03:43:56;13.77;;;9.52;;
31782;SDS011;18351;47.560;9.708;2023-03-12T03:46:23;14.15;;;10.50;;
31782;SDS011;18351;47.560;9.708;2023-03-12T03:48:49;13.88;;;9.65;;
31782;SDS011;18351;47.560;9.708;2023-03-12T03:51:15;15.35;;;11.30;;
31782;SDS011;18351;47.560;9.708;2023-03-12T03:53:41;15.40;;;10.75;;
31782;SDS011;18351;47.560;9.708;2023-03-12T03:56:07;11.45;;;8.60;;
31782;SDS011;18351;47.560;9.708;2023-03-12T03:58:37;11.07;;;8.30;;
31782;SDS011;18351;47.560;9.708;2023-03-12T04:01:03;9.02;;;6.65;;
31782;SDS011;18351;47.560;9.708;2023-03-12T04:03:30;9.65;;;6.80;;
31782;SDS011;18351;47.560;9.708;2023-03-12T04:05:57;10.25;;;7.15;;
31782;SDS011;18351;47.560;9.708;2023-03-12T04:08:24;8.65;;;6.57;;
31782;SDS011;18351;47.560;9.708;2023-03-12T04:10:51;11.40;;;7.95;;
31782;SDS011;18351;47.560;9.708;2023-03-12T04:13:16;11.38;;;8.25;;
31782;SDS011;18351;47.560;9.708;2023-03-12T04:15:46;9.77;;;7.60;;
31782;SDS011;18351;47.560;9.708;2023-03-12T04:18:13;12.50;;;8.25;;
31782;SDS011;18351;47.560;9.708;2023-03-12T04:20:38;11.25;;;8.30;;
31782;SDS011;18351;47.560;9.708;2023-03-12T04:23:04;10.85;;;7.63;;
31782;SDS011;18351;47.560;9.708;2023-03-12T04:25:29;11.07;;;7.80;;
31782;SDS011;18351;47.560;9.708;2023-03-12T04:27:55;11.95;;;8.63;;
31782;SDS011;18351;47.560;9.708;2023-03-12T04:30:21;12.68;;;8.98;;
31782;SDS011;18351;47.560;9.708;2023-03-12T04:32:46;11.48;;;8.65;;
31782;SDS011;18351;47.560;9.708;2023-03-12T04:35:12;9.90;;;7.03;;
31782;SDS011;18351;47.560;9.708;2023-03-12T04:37:37;9.82;;;7.60;;
31782;SDS011;18351;47.560;9.708;2023-03-12T04:40:03;9.73;;;7.10;;
31782;SDS011;18351;47.560;9.708;2023-03-12T04:42:32;10.48;;;7.10;;
31782;SDS011;18351;47.560;9.708;2023-03-12T04:44:59;8.02;;;6.40;;
31782;SDS011;18351;47.560;9.708;2023-03-12T04:47:24;9.10;;;6.70;;
31782;SDS011;18351;47.560;9.708;2023-03-12T04:49:50;12.35;;;7.10;;
31782;SDS011;18351;47.560;9.708;2023-03-12T04:52:16;9.57;;;7.10;;
31782;SDS011;18351;47.560;9.708;2023-03-12T04:54:41;9.57;;;7.05;;
31782;SDS011;18351;47.560;9.708;2023-03-12T04:57:08;8.75;;;6.78;;
31782;SDS011;18351;47.560;9.708;2023-03-12T04:59:33;10.55;;;6.75;;
31782;SDS011;18351;47.560;9.708;2023-03-12T05:01:59;7.45;;;6.05;;
31782;SDS011;18351;47.560;9.708;2023-03-12T05:04:25;8.23;;;6.30;;
31782;SDS011;18351;47.560;9.708;2023-03-12T05:06:50;6.72;;;5.28;;
31782;SDS011;18351;47.560;9.708;2023-03-12T05:09:16;6.32;;;5.28;;
31782;SDS011;18351;47.560;9.708;2023-03-12T05:11:41;7.10;;;6.05;;
31782;SDS011;18351;47.560;9.708;2023-03-12T05:14:08;6.20;;;5.32;;
31782;SDS011;18351;47.560;9.708;2023-03-12T05:16:35;9.57;;;6.68;;
31782;SDS011;18351;47.560;9.708;2023-03-12T05:19:00;10.95;;;7.97;;
31782;SDS011;18351;47.560;9.708;2023-03-12T05:21:26;11.55;;;8.23;;
31782;SDS011;18351;47.560;9.708;2023-03-12T05:23:52;12.13;;;9.15;;
31782;SDS011;18351;47.560;9.708;2023-03-12T05:26:19;14.07;;;9.60;;
31782;SDS011;18351;47.560;9.708;2023-03-12T05:28:52;11.57;;;8.73;;
31782;SDS011;18351;47.560;9.708;2023-03-12T05:31:18;13.23;;;9.13;;
31782;SDS011;18351;47.560;9.708;2023-03-12T05:33:45;13.43;;;9.45;;
31782;SDS011;18351;47.560;9.708;2023-03-12T05:36:11;12.90;;;9.25;;
31782;SDS011;18351;47.560;9.708;2023-03-12T05:38:37;16.73;;;10.82;;
31782;SDS011;18351;47.560;9.708;2023-03-12T05:41:03;13.32;;;9.63;;
31782;SDS011;18351;47.560;9.708;2023-03-12T05:43:30;14.52;;;9.60;;
31782;SDS011;18351;47.560;9.708;2023-03-12T05:45:59;14.40;;;10.05;;
31782;SDS011;18351;47.560;9.708;2023-03-12T05:48:27;12.32;;;9.52;;
31782;SDS011;18351;47.560;9.708;2023-03-12T05:50:53;12.75;;;9.57;;
31782;SDS011;18351;47.560;9.708;2023-03-12T05:53:18;14.60;;;10.15;;
31782;SDS011;18351;47.560;9.708;2023-03-12T05:55:44;13.23;;;10.07;;
31782;SDS011;18351;47.560;9.708;2023-03-12T05:58:09;12.55;;;9.43;;
31782;SDS011;18351;47.560;9.708;2023-03-12T06:00:35;14.32;;;9.80;;
31782;SDS011;18351;47.560;9.708;2023-03-12T06:03:02;10.75;;;8.25;;
31782;SDS011;18351;47.560;9.708;2023-03-12T06:05:29;9.80;;;7.13;;
31782;SDS011;18351;47.560;9.708;2023-03-12T06:07:56;8.98;;;6.68;;
31782;SDS011;18351;47.560;9.708;2023-03-12T06:10:22;7.65;;;5.40;;
31782;SDS011;18351;47.560;9.708;2023-03-12T06:12:47;6.93;;;5.45;;
31782;SDS011;18351;47.560;9.708;2023-03-12T06:15:13;7.13;;;5.22;;
31782;SDS011;18351;47.560;9.708;2023-03-12T06:17:38;6.15;;;4.85;;
31782;SDS011;18351;47.560;9.708;2023-03-12T06:20:04;8.40;;;5.97;;
31782;SDS011;18351;47.560;9.708;2023-03-12T06:22:31;8.48;;;6.80;;
31782;SDS011;18351;47.560;9.708;2023-03-12T06:24:56;10.30;;;6.93;;
31782;SDS011;18351;47.560;9.708;2023-03-12T06:27:22;9.98;;;7.35;;
31782;SDS011;18351;47.560;9.708;2023-03-12T06:29:48;10.15;;;7.32;;
31782;SDS011;18351;47.560;9.708;2023-03-12T06:32:13;9.63;;;7.68;;
31782;SDS011;18351;47.560;9.708;2023-03-12T06:34:39;10.45;;;7.85;;
31782;SDS011;18351;47.560;9.708;2023-03-12T06:37:05;11.77;;;8.68;;
31782;SDS011;18351;47.560;9.708;2023-03-12T06:39:30;13.40;;;9.48;;
31782;SDS011;18351;47.560;9.708;2023-03-12T06:41:56;12.88;;;9.77;;
31782;SDS011;18351;47.560;9.708;2023-03-12T06:44:22;26.15;;;18.10;;
31782;SDS011;18351;47.560;9.708;2023-03-12T06:46:47;15.07;;;11.02;;
31782;SDS011;18351;47.560;9.708;2023-03-12T06:49:13;13.68;;;10.35;;
31782;SDS011;18351;47.560;9.708;2023-03-12T06:51:39;12.80;;;9.43;;
31782;SDS011;18351;47.560;9.708;2023-03-12T06:54:04;14.90;;;10.55;;
31782;SDS011;18351;47.560;9.708;2023-03-12T06:56:30;13.30;;;10.13;;
31782;SDS011;18351;47.560;9.708;2023-03-12T06:58:56;13.38;;;10.63;;
31782;SDS011;18351;47.560;9.708;2023-03-12T07:01:21;15.27;;;11.93;;
31782;SDS011;18351;47.560;9.708;2023-03-12T07:03:47;14.27;;;10.68;;
31782;SDS011;18351;47.560;9.708;2023-03-12T07:06:14;12.90;;;9.85;;
31782;SDS011;18351;47.560;9.708;2023-03-12T07:08:41;13.10;;;9.82;;
31782;SDS011;18351;47.560;9.708;2023-03-12T07:11:07;15.55;;;10.25;;
31782;SDS011;18351;47.560;9.708;2023-03-12T07:13:33;11.23;;;8.30;;
31782;SDS011;18351;47.560;9.708;2023-03-12T07:15:59;9.73;;;8.07;;
31782;SDS011;18351;47.560;9.708;2023-03-12T07:18:25;10.57;;;7.65;;
31782;SDS011;18351;47.560;9.708;2023-03-12T07:20:51;9.75;;;6.22;;
31782;SDS011;18351;47.560;9.708;2023-03-12T07:23:17;8.45;;;6.15;;
31782;SDS011;18351;47.560;9.708;2023-03-12T07:25:42;7.93;;;6.20;;
31782;SDS011;18351;47.560;9.708;2023-03-12T07:28:09;8.38;;;6.28;;
31782;SDS011;18351;47.560;9.708;2023-03-12T07:30:35;7.78;;;6.13;;
31782;SDS011;18351;47.560;9.708;2023-03-12T07:33:02;9.77;;;5.90;;
31782;SDS011;18351;47.560;9.708;2023-03-12T07:35:29;7.53;;;6.28;;
31782;SDS011;18351;47.560;9.708;2023-03-12T07:37:55;9.27;;;6.53;;
31782;SDS011;18351;47.560;9.708;2023-03-12T07:40:21;8.75;;;6.10;;
31782;SDS011;18351;47.560;9.708;2023-03-12T07:42:46;6.95;;;6.00;;
31782;SDS011;18351;47.560;9.708;2023-03-12T07:45:13;7.43;;;5.57;;
31782;SDS011;18351;47.560;9.708;2023-03-12T07:47:39;8.75;;;6.47;;
31782;SDS011;18351;47.560;9.708;2023-03-12T07:50:05;9.05;;;6.53;;
31782;SDS011;18351;47.560;9.708;2023-03-12T07:52:30;8.02;;;6.28;;
31782;SDS011;18351;47.560;9.708;2023-03-12T07:54:56;8.05;;;6.45;;
31782;SDS011;18351;47.560;9.708;2023-03-12T07:57:22;9.65;;;6.60;;
31782;SDS011;18351;47.560;9.708;2023-03-12T07:59:48;7.13;;;5.47;;
31782;SDS011;18351;47.560;9.708;2023-03-12T08:02:14;7.97;;;5.63;;
31782;SDS011;18351;47.560;9.708;2023-03-12T08:04:39;8.38;;;6.20;;
31782;SDS011;18351;47.560;9.708;2023-03-12T08:07:05;9.23;;;6.80;;
31782;SDS011;18351;47.560;9.708;2023-03-12T08:09:31;7.32;;;5.22;;
31782;SDS011;18351;47.560;9.708;2023-03-12T08:11:57;7.25;;;5.30;;
31782;SDS011;18351;47.560;9.708;2023-03-12T08:14:23;7.55;;;5.45;;
31782;SDS011;18351;47.560;9.708;2023-03-12T08:16:49;7.97;;;5.53;;
31782;SDS011;18351;47.560;9.708;2023-03-12T08:19:14;7.60;;;5.95;;
31782;SDS011;18351;47.560;9.708;2023-03-12T08:21:40;8.02;;;5.95;;
31782;SDS011;18351;47.560;9.708;2023-03-12T08:24:06;8.10;;;6.00;;
31782;SDS011;18351;47.560;9.708;2023-03-12T08:26:32;6.03;;;5.38;;
31782;SDS011;18351;47.560;9.708;2023-03-12T08:28:57;7.63;;;6.10;;
31782;SDS011;18351;47.560;9.708;2023-03-12T08:31:25;6.85;;;5.80;;
31782;SDS011;18351;47.560;9.708;2023-03-12T08:33:51;9.38;;;7.20;;
31782;SDS011;18351;47.560;9.708;2023-03-12T08:36:17;9.20;;;6.63;;
31782;SDS011;18351;47.560;9.708;2023-03-12T08:38:42;9.40;;;6.35;;
31782;SDS011;18351;47.560;9.708;2023-03-12T08:41:08;9.82;;;6.82;;
31782;SDS011;18351;47.560;9.708;2023-03-12T08:43:34;9.15;;;6.28;;
31782;SDS011;18351;47.560;9.708;2023-03-12T08:46:00;7.28;;;5.75;;
31782;SDS011;18351;47.560;9.708;2023-03-12T08:48:27;8.43;;;6.15;;
31782;SDS011;18351;47.560;9.708;2023-03-12T08:50:55;7.90;;;6.18;;
31782;SDS011;18351;47.560;9.708;2023-03-12T08:53:25;11.48;;;7.03;;
31782;SDS011;18351;47.560;9.708;2023-03-12T08:55:54;7.22;;;6.20;;
31782;SDS011;18351;47.560;9.708;2023-03-12T08:58:20;8.10;;;5.72;;
31782;SDS011;18351;47.560;9.708;2023-03-12T09:00:47;8.00;;;6.55;;
31782;SDS011;18351;47.560;9.708;2023-03-12T09:03:12;7.68;;;5.90;;
31782;SDS011;18351;47.560;9.708;2023-03-12T09:05:39;10.18;;;6.75;;
31782;SDS011;18351;47.560;9.708;2023-03-12T09:08:05;12.13;;;7.60;;
31782;SDS011;18351;47.560;9.708;2023-03-12T09:10:31;8.63;;;6.22;;
31782;SDS011;18351;47.560;9.708;2023-03-12T09:12:57;6.53;;;5.82;;
31782;SDS011;18351;47.560;9.708;2023-03-12T09:15:23;7.78;;;5.93;;
31782;SDS011;18351;47.560;9.708;2023-03-12T09:17:48;8.07;;;6.70;;
31782;SDS011;18351;47.560;9.708;2023-03-12T09:20:14;8.52;;;6.60;;
31782;SDS011;18351;47.560;9.708;2023-03-12T09:22:40;8.05;;;6.53;;
31782;SDS011;18351;47.560;9.708;2023-03-12T09:25:06;9.20;;;5.95;;
31782;SDS011;18351;47.560;9.708;2023-03-12T09:27:40;8.10;;;5.95;;
31782;SDS011;18351;47.560;9.708;2023-03-12T09:30:10;7.05;;;5.13;;
31782;SDS011;18351;47.560;9.708;2023-03-12T09:32:37;9.88;;;4.90;;
31782;SDS011;18351;47.560;9.708;2023-03-12T09:35:04;6.15;;;5.00;;
31782;SDS011;18351;47.560;9.708;2023-03-12T09:37:31;5.65;;;4.68;;
31782;SDS011;18351;47.560;9.708;2023-03-12T09:39:56;7.53;;;5.10;;
31782;SDS011;18351;47.560;9.708;2023-03-12T09:42:28;6.47;;;5.22;;
31782;SDS011;18351;47.560;9.708;2023-03-12T09:45:00;5.45;;;4.47;;
31782;SDS011;18351;47.560;9.708;2023-03-12T09:47:30;8.50;;;4.65;;
31782;SDS011;18351;47.560;9.708;2023-03-12T09:50:06;5.95;;;4.95;;
31782;SDS011;18351;47.560;9.708;2023-03-12T09:57:45;4.75;;;4.10;;
31782;SDS011;18351;47.560;9.708;2023-03-12T10:00:13;11.88;;;6.00;;
31782;SDS011;18351;47.560;9.708;2023-03-12T10:02:51;14.52;;;7.00;;
31782;SDS011;18351;47.560;9.708;2023-03-12T10:05:42;8.18;;;5.68;;
31782;SDS011;18351;47.560;9.708;2023-03-12T10:08:12;7.90;;;5.60;;
31782;SDS011;18351;47.560;9.708;2023-03-12T10:13:40;7.13;;;5.45;;
31782;SDS011;18351;47.560;9.708;2023-03-12T10:25:05;6.88;;;4.90;;
31782;SDS011;18351;47.560;9.708;2023-03-12T10:27:49;6.53;;;4.95;;
31782;SDS011;18351;47.560;9.708;2023-03-12T10:30:22;7.25;;;5.32;;
31782;SDS011;18351;47.560;9.708;2023-03-12T10:32:54;15.77;;;8.82;;
31782;SDS011;18351;47.560;9.708;2023-03-12T10:35:25;8.07;;;5.18;;
31782;SDS011;18351;47.560;9.708;2023-03-12T10:37:56;14.80;;;7.93;;
31782;SDS011;18351;47.560;9.708;2023-03-12T10:40:24;27.38;;;15.07;;
31782;SDS011;18351;47.560;9.708;2023-03-12T10:42:58;17.80;;;10.40;;
31782;SDS011;18351;47.560;9.708;2023-03-12T10:45:26;15.73;;;8.75;;
31782;SDS011;18351;47.560;9.708;2023-03-12T10:48:04;5.75;;;4.82;;
31782;SDS011;18351;47.560;9.708;2023-03-12T10:50:33;6.70;;;4.88;;
31782;SDS011;18351;47.560;9.708;2023-03-12T10:58:36;6.05;;;4.75;;
31782;SDS011;18351;47.560;9.708;2023-03-12T11:01:03;6.32;;;4.78;;
31782;SDS011;18351;47.560;9.708;2023-03-12T11:03:31;7.13;;;4.95;;
31782;SDS011;18351;47.560;9.708;2023-03-12T11:06:01;8.07;;;4.68;;
31782;SDS011;18351;47.560;9.708;2023-03-12T11:08:30;7.05;;;4.70;;
31782;SDS011;18351;47.560;9.708;2023-03-12T11:11:01;5.18;;;4.40;;
31782;SDS011;18351;47.560;9.708;2023-03-12T11:15:59;6.45;;;5.07;;
31782;SDS011;18351;47.560;9.708;2023-03-12T11:18:31;9.07;;;5.45;;
31782;SDS011;18351;47.560;9.708;2023-03-12T11:23:33;8.07;;;5.45;;
31782;SDS011;18351;47.560;9.708;2023-03-12T11:26:00;6.57;;;5.57;;
31782;SDS011;18351;47.560;9.708;2023-03-12T11:28:31;7.45;;;5.53;;
31782;SDS011;18351;47.560;9.708;2023-03-12T11:31:07;8.93;;;7.13;;
31782;SDS011;18351;47.560;9.708;2023-03-12T11:33:39;12.70;;;9.25;;
31782;SDS011;18351;47.560;9.708;2023-03-12T11:39:09;9.07;;;6.47;;
31782;SDS011;18351;47.560;9.708;2023-03-12T11:41:59;10.68;;;7.55;;
31782;SDS011;18351;47.560;9.708;2023-03-12T11:49:57;9.52;;;5.55;;
31782;SDS011;18351;47.560;9.708;2023-03-12T12:01:09;15.10;;;9.80;;
31782;SDS011;18351;47.560;9.708;2023-03-12T12:06:16;8.32;;;6.75;;
31782;SDS011;18351;47.560;9.708;2023-03-12T12:19:35;7.38;;;5.25;;
31782;SDS011;18351;47.560;9.708;2023-03-12T12:22:33;9.13;;;5.15;;
31782;SDS011;18351;47.560;9.708;2023-03-12T12:33:28;7.45;;;4.68;;
31782;SDS011;18351;47.560;9.708;2023-03-12T12:36:10;7.13;;;4.40;;
31782;SDS011;18351;47.560;9.708;2023-03-12T12:38:41;6.85;;;5.53;;
31782;SDS011;18351;47.560;9.708;2023-03-12T12:41:13;7.35;;;5.28;;
31782;SDS011;18351;47.560;9.708;2023-03-12T12:43:47;8.15;;;6.57;;
31782;SDS011;18351;47.560;9.708;2023-03-12T12:46:29;12.40;;;8.32;;
31782;SDS011;18351;47.560;9.708;2023-03-12T12:49:03;15.27;;;9.68;;
31782;SDS011;18351;47.560;9.708;2023-03-12T12:51:36;13.18;;;7.40;;
31782;SDS011;18351;47.560;9.708;2023-03-12T12:54:11;8.18;;;5.45;;
31782;SDS011;18351;47.560;9.708;2023-03-12T12:56:49;8.55;;;4.68;;
31782;SDS011;18351;47.560;9.708;2023-03-12T13:02:18;5.07;;;3.88;;
31782;SDS011;18351;47.560;9.708;2023-03-12T13:04:46;9.70;;;4.88;;
31782;SDS011;18351;47.560;9.708;2023-03-12T13:09:45;4.90;;;3.97;;
31782;SDS011;18351;47.560;9.708;2023-03-12T13:12:29;7.38;;;4.47;;
31782;SDS011;18351;47.560;9.708;2023-03-12T13:20:19;5.57;;;4.95;;
31782;SDS011;18351;47.560;9.708;2023-03-12T13:25:46;7.90;;;5.50;;
31782;SDS011;18351;47.560;9.708;2023-03-12T13:34:28;10.38;;;5.50;;
31782;SDS011;18351;47.560;9.708;2023-03-12T13:36:58;7.80;;;5.55;;
31782;SDS011;18351;47.560;9.708;2023-03-12T13:39:32;6.65;;;4.57;;
31782;SDS011;18351;47.560;9.708;2023-03-12T13:42:00;7.15;;;5.05;;
31782;SDS011;18351;47.560;9.708;2023-03-12T13:44:45;6.70;;;5.10;;
31782;SDS011;18351;47.560;9.708;2023-03-12T13:50:03;6.57;;;5.28;;
31782;SDS011;18351;47.560;9.708;2023-03-12T13:52:40;6.45;;;4.93;;
31782;SDS011;18351;47.560;9.708;2023-03-12T14:00:18;6.57;;;4.35;;
31782;SDS011;18351;47.560;9.708;2023-03-12T14:02:52;5.03;;;3.80;;
31782;SDS011;18351;47.560;9.708;2023-03-12T14:05:22;6.43;;;3.50;;
31782;SDS011;18351;47.560;9.708;2023-03-12T14:07:50;6.18;;;4.28;;
31782;SDS011;18351;47.560;9.708;2023-03-12T14:16:53;4.88;;;3.40;;
31782;SDS011;18351;47.560;9.708;2023-03-12T14:19:16;3.80;;;2.47;;
31782;SDS011;18351;47.560;9.708;2023-03-12T14:21:46;3.22;;;2.40;;
31782;SDS011;18351;47.560;9.708;2023-03-12T14:25:15;4.97;;;2.60;;
31782;SDS011;18351;47.560;9.708;2023-03-12T14:27:27;3.38;;;2.08;;
31782;SDS011;18351;47.560;9.708;2023-03-12T14:32:39;10.18;;;5.60;;
31782;SDS011;18351;47.560;9.708;2023-03-12T14:43:25;5.53;;;3.60;;
31782;SDS011;18351;47.560;9.708;2023-03-12T14:45:57;3.65;;;2.80;;
31782;SDS011;18351;47.560;9.708;2023-03-12T14:48:31;2.60;;;2.40;;
31782;SDS011;18351;47.560;9.708;2023-03-12T14:50:58;2.80;;;2.50;;
31782;SDS011;18351;47.560;9.708;2023-03-12T14:53:26;5.32;;;2.58;;
31782;SDS011;18351;47.560;9.708;2023-03-12T14:56:14;2.65;;;2.40;;
31782;SDS011;18351;47.560;9.708;2023-03-12T14:58:54;2.78;;;2.33;;
31782;SDS011;18351;47.560;9.708;2023-03-12T15:01:22;3.42;;;2.25;;
31782;SDS011;18351;47.560;9.708;2023-03-12T15:03:54;2.50;;;2.30;;
31782;SDS011;18351;47.560;9.708;2023-03-12T15:06:30;4.20;;;2.58;;
31782;SDS011;18351;47.560;9.708;2023-03-12T15:08:58;8.98;;;5.88;;
31782;SDS011;18351;47.560;9.708;2023-03-12T15:11:28;4.88;;;3.72;;
31782;SDS011;18351;47.560;9.708;2023-03-12T15:13:56;4.88;;;3.15;;
31782;SDS011;18351;47.560;9.708;2023-03-12T15:16:31;3.67;;;2.67;;
31782;SDS011;18351;47.560;9.708;2023-03-12T15:18:57;6.65;;;3.58;;
31782;SDS011;18351;47.560;9.708;2023-03-12T15:21:23;8.50;;;4.80;;
31782;SDS011;18351;47.560;9.708;2023-03-12T15:23:49;25.63;;;16.90;;
31782;SDS011;18351;47.560;9.708;2023-03-12T15:28:54;18.23;;;12.02;;
31782;SDS011;18351;47.560;9.708;2023-03-12T15:31:21;17.98;;;12.60;;
31782;SDS011;18351;47.560;9.708;2023-03-12T15:33:58;18.90;;;12.95;;
31782;SDS011;18351;47.560;9.708;2023-03-12T15:36:26;25.23;;;16.90;;
31782;SDS011;18351;47.560;9.708;2023-03-12T15:39:03;42.83;;;24.02;;
31782;SDS011;18351;47.560;9.708;2023-03-12T15:41:50;49.60;;;27.90;;
31782;SDS011;18351;47.560;9.708;2023-03-12T15:44:18;54.53;;;31.58;;
31782;SDS011;18351;47.560;9.708;2023-03-12T15:46:45;26.60;;;18.98;;
31782;SDS011;18351;47.560;9.708;2023-03-12T15:49:18;19.25;;;14.63;;
31782;SDS011;18351;47.560;9.708;2023-03-12T15:52:54;14.30;;;10.88;;
31782;SDS011;18351;47.560;9.708;2023-03-12T15:57:36;10.07;;;8.02;;
31782;SDS011;18351;47.560;9.708;2023-03-12T16:03:13;14.65;;;12.32;;
31782;SDS011;18351;47.560;9.708;2023-03-12T16:05:43;11.32;;;7.97;;
31782;SDS011;18351;47.560;9.708;2023-03-12T16:08:12;12.75;;;8.13;;
31782;SDS011;18351;47.560;9.708;2023-03-12T16:11:09;11.13;;;7.85;;
31782;SDS011;18351;47.560;9.708;2023-03-12T16:13:40;19.85;;;12.85;;
31782;SDS011;18351;47.560;9.708;2023-03-12T16:16:08;10.07;;;7.20;;
31782;SDS011;18351;47.560;9.708;2023-03-12T16:18:36;9.05;;;6.57;;
31782;SDS011;18351;47.560;9.708;2023-03-12T16:21:02;9.38;;;6.60;;
31782;SDS011;18351;47.560;9.708;2023-03-12T16:23:28;12.43;;;8.57;;
31782;SDS011;18351;47.560;9.708;2023-03-12T16:25:55;7.68;;;5.68;;
31782;SDS011;18351;47.560;9.708;2023-03-12T16:28:22;5.25;;;4.25;;
31782;SDS011;18351;47.560;9.708;2023-03-12T16:30:49;4.88;;;3.85;;
31782;SDS011;18351;47.560;9.708;2023-03-12T16:33:17;6.25;;;3.90;;
31782;SDS011;18351;47.560;9.708;2023-03-12T16:35:45;7.63;;;4.57;;
31782;SDS011;18351;47.560;9.708;2023-03-12T16:38:11;5.00;;;3.85;;
31782;SDS011;18351;47.560;9.708;2023-03-12T16:40:38;7.85;;;5.07;;
31782;SDS011;18351;47.560;9.708;2023-03-12T16:43:10;6.78;;;4.55;;
31782;SDS011;18351;47.560;9.708;2023-03-12T16:45:41;5.15;;;4.65;;
31782;SDS011;18351;47.560;9.708;2023-03-12T16:48:10;9.95;;;6.35;;
31782;SDS011;18351;47.560;9.708;2023-03-12T16:50:46;10.00;;;8.20;;